Time,TemperatureF,DewpointF,PressureIn,WindDirection,WindDirectionDegrees,WindSpeedMPH,WindSpeedGustMPH,Humidity,HourlyPrecipIn,Conditions,Clouds,dailyrainin,SolarRadiationWatts/m^2,SoftwareType,DateUTC
2014-08-22 00:01:00,57.6,57.0,30.10,ENE,77,5.8,5.8,98,0.11,RA,SKC,0.00,0.0,WeatherDisplay:10.37,2014-08-22 04:01:00,
2014-08-22 00:02:00,57.6,57.0,30.10,East,88,3.5,3.5,98,0.11,RA,SKC,0.00,0.0,WeatherDisplay:10.37,2014-08-22 04:02:00,
2014-08-22 00:07:00,57.5,56.9,30.10,SE,126,3.5,0.0,98,0.10,RA,SKC,0.00,0.0,WeatherDisplay:10.37,2014-08-22 04:07:00,
2014-08-22 00:12:00,57.5,56.9,30.10,SE,135,4.0,4.0,98,0.10,CLR,SKC,0.00,0.0,WeatherDisplay:10.37,2014-08-22 04:12:00,
2014-08-22 00:17:00,57.6,57.0,30.10,ESE,104,4.6,4.6,98,0.07,CLR,SKC,0.00,0.0,WeatherDisplay:10.37,2014-08-22 04:17:00,
2014-08-22 00:22:00,57.6,57.0,30.10,East,93,4.6,4.6,98,0.01,CLR,SKC,0.00,0.0,WeatherDisplay:10.37,2014-08-22 04:22:00,
2014-08-22 00:27:00,57.6,57.0,30.10,ENE,74,8.1,8.1,98,0.01,CLR,SKC,0.00,0.0,WeatherDisplay:10.37,2014-08-22 04:27:00,
2014-08-22 00:32:00,57.6,57.0,30.10,ESE,119,3.5,3.5,98,0.01,CLR,SKC,0.00,0.0,WeatherDisplay:10.37,2014-08-22 04:32:00,
2014-08-22 00:37:00,57.6,57.0,30.09,NE,34,0.0,0.0,98,0.02,RA,SKC,0.01,0.0,WeatherDisplay:10.37,2014-08-22 04:37:00,
2014-08-22 00:42:00,57.6,57.0,30.09,East,100,4.6,4.6,98,0.02,RA,SKC,0.01,0.0,WeatherDisplay:10.37,2014-08-22 04:42:00,
2014-08-22 00:47:00,57.6,57.0,30.10,ESE,118,1.2,0.0,98,0.01,CLR,SKC,0.01,0.0,WeatherDisplay:10.37,2014-08-22 04:47:00,
2014-08-22 00:52:00,57.6,57.0,30.10,East,84,1.2,0.0,98,0.01,CLR,SKC,0.01,0.0,WeatherDisplay:10.37,2014-08-22 04:52:00,
2014-08-22 00:57:00,57.7,57.1,30.10,East,96,3.5,3.5,98,0.01,CLR,SKC,0.01,0.0,WeatherDisplay:10.37,2014-08-22 04:57:00,
2014-08-22 01:02:00,57.7,57.1,30.10,ESE,115,0.0,0.0,98,0.01,CLR,SKC,0.01,0.0,WeatherDisplay:10.37,2014-08-22 05:02:00,
2014-08-22 01:07:00,57.8,57.2,30.10,East,88,3.5,3.5,98,0.01,CLR,SKC,0.01,0.0,WeatherDisplay:10.37,2014-08-22 05:07:00,
2014-08-22 01:12:00,57.8,57.2,30.10,ESE,112,0.0,0.0,98,0.01,CLR,SKC,0.01,0.0,WeatherDisplay:10.37,2014-08-22 05:12:00,
2014-08-22 01:17:00,57.8,57.2,30.10,ESE,119,2.0,2.0,98,0.01,CLR,SKC,0.01,0.0,WeatherDisplay:10.37,2014-08-22 05:17:00,
2014-08-22 01:22:00,57.7,57.1,30.10,East,99,0.0,0.0,98,0.01,CLR,SKC,0.01,0.0,WeatherDisplay:10.37,2014-08-22 05:22:00,
2014-08-22 01:27:00,57.7,57.1,30.09,East,84,4.0,4.0,98,0.01,CLR,SKC,0.01,0.0,WeatherDisplay:10.37,2014-08-22 05:27:00,
2014-08-22 01:32:00,57.7,57.1,30.09,ENE,71,10.4,10.4,98,0.01,CLR,SKC,0.01,0.0,WeatherDisplay:10.37,2014-08-22 05:32:00,
2014-08-22 01:37:00,57.7,57.1,30.09,ESE,105,3.5,3.5,98,0.01,RA,SKC,0.02,0.0,WeatherDisplay:10.37,2014-08-22 05:37:00,
2014-08-22 01:42:00,57.7,57.1,30.09,ESE,103,9.2,9.2,98,0.01,RA,SKC,0.02,0.0,WeatherDisplay:10.37,2014-08-22 05:42:00,
2014-08-22 01:47:00,57.7,57.1,30.09,WNW,285,4.6,4.6,98,0.01,CLR,SKC,0.02,0.0,WeatherDisplay:10.37,2014-08-22 05:47:00,
2014-08-22 01:52:00,57.7,57.1,30.08,East,92,1.2,1.2,98,0.01,CLR,SKC,0.02,0.0,WeatherDisplay:10.37,2014-08-22 05:52:00,
2014-08-22 01:57:00,57.7,57.1,30.08,ENE,64,6.9,6.9,98,0.01,CLR,SKC,0.02,0.0,WeatherDisplay:10.37,2014-08-22 05:57:00,
2014-08-22 02:02:00,57.5,56.9,30.09,ESE,115,4.6,4.6,98,0.01,CLR,SKC,0.02,0.0,WeatherDisplay:10.37,2014-08-22 06:02:00,
2014-08-22 02:07:00,57.5,56.9,30.09,East,84,6.0,6.0,98,0.01,CLR,SKC,0.02,0.0,WeatherDisplay:10.37,2014-08-22 06:07:00,
2014-08-22 02:12:00,57.4,56.8,30.09,SSE,157,5.8,5.8,98,0.01,CLR,SKC,0.02,0.0,WeatherDisplay:10.37,2014-08-22 06:12:00,
2014-08-22 02:17:00,57.4,56.8,30.09,ESE,111,3.5,3.5,98,0.01,CLR,SKC,0.02,0.0,WeatherDisplay:10.37,2014-08-22 06:17:00,
2014-08-22 02:22:00,57.3,56.7,30.09,ENE,63,5.0,5.0,98,0.01,CLR,SKC,0.02,0.0,WeatherDisplay:10.37,2014-08-22 06:22:00,
2014-08-22 02:27:00,57.3,56.7,30.09,East,90,1.2,0.0,98,0.01,CLR,SKC,0.02,0.0,WeatherDisplay:10.37,2014-08-22 06:27:00,
2014-08-22 02:32:00,57.2,56.6,30.09,ESE,103,3.5,3.5,98,0.01,CLR,SKC,0.02,0.0,WeatherDisplay:10.37,2014-08-22 06:32:00,
2014-08-22 02:37:00,57.2,56.6,30.09,NE,54,3.5,3.5,98,0.00,CLR,SKC,0.02,0.0,WeatherDisplay:10.37,2014-08-22 06:37:00,
2014-08-22 02:42:00,57.0,56.2,30.09,East,99,3.5,3.5,97,0.00,CLR,SKC,0.02,0.0,WeatherDisplay:10.37,2014-08-22 06:42:00,
2014-08-22 02:47:00,57.1,56.5,30.09,East,94,2.3,2.3,98,0.00,CLR,SKC,0.02,0.0,WeatherDisplay:10.37,2014-08-22 06:47:00,
2014-08-22 02:52:00,57.0,56.2,30.09,SE,146,0.0,0.0,97,0.00,CLR,SKC,0.02,0.0,WeatherDisplay:10.37,2014-08-22 06:52:00,
2014-08-22 02:57:00,57.0,56.2,30.09,SE,128,2.3,2.3,97,0.00,CLR,SKC,0.02,0.0,WeatherDisplay:10.37,2014-08-22 06:57:00,
2014-08-22 03:02:00,57.0,56.2,30.09,East,79,3.5,3.5,97,0.00,CLR,SKC,0.02,0.0,WeatherDisplay:10.37,2014-08-22 07:02:00,
2014-08-22 03:07:00,57.0,56.2,30.09,SSE,149,5.8,5.8,97,0.00,CLR,SKC,0.02,0.0,WeatherDisplay:10.37,2014-08-22 07:07:00,
2014-08-22 03:12:00,57.0,56.2,30.09,ESE,112,2.3,2.3,97,0.00,CLR,SKC,0.02,0.0,WeatherDisplay:10.37,2014-08-22 07:12:00,
2014-08-22 03:17:00,57.0,56.2,30.09,ESE,114,3.5,3.5,97,0.00,CLR,SKC,0.02,0.0,WeatherDisplay:10.37,2014-08-22 07:17:00,
2014-08-22 03:22:00,57.0,56.2,30.09,SSW,201,3.0,3.0,97,0.00,CLR,SKC,0.02,0.0,WeatherDisplay:10.37,2014-08-22 07:22:00,
2014-08-22 03:27:00,57.0,56.2,30.09,ESE,114,3.5,3.5,97,0.00,CLR,SKC,0.02,0.0,WeatherDisplay:10.37,2014-08-22 07:27:00,
2014-08-22 03:32:00,57.0,56.2,30.09,ESE,106,3.0,0.0,97,0.00,CLR,SKC,0.02,0.0,WeatherDisplay:10.37,2014-08-22 07:32:00,
2014-08-22 03:37:00,57.0,56.2,30.09,East,80,0.0,0.0,97,0.00,CLR,SKC,0.02,0.0,WeatherDisplay:10.37,2014-08-22 07:37:00,
2014-08-22 03:42:00,57.0,56.2,30.09,SW,221,1.2,1.2,97,0.00,CLR,SKC,0.02,0.0,WeatherDisplay:10.37,2014-08-22 07:42:00,
2014-08-22 03:47:00,57.0,56.2,30.09,East,84,1.2,1.2,97,0.00,CLR,SKC,0.02,0.0,WeatherDisplay:10.37,2014-08-22 07:47:00,
2014-08-22 03:52:00,57.0,56.2,30.09,ENE,74,3.5,3.5,97,0.00,CLR,SKC,0.02,0.0,WeatherDisplay:10.37,2014-08-22 07:52:00,
2014-08-22 03:57:00,57.0,56.2,30.10,SSE,162,1.2,0.0,97,0.00,CLR,SKC,0.02,0.0,WeatherDisplay:10.37,2014-08-22 07:57:00,
2014-08-22 04:02:00,57.0,56.2,30.10,ESE,103,0.0,0.0,97,0.00,CLR,SKC,0.02,0.0,WeatherDisplay:10.37,2014-08-22 08:02:00,
2014-08-22 04:07:00,57.0,56.2,30.10,ESE,104,0.0,0.0,97,0.00,CLR,SKC,0.02,0.0,WeatherDisplay:10.37,2014-08-22 08:07:00,
2014-08-22 04:12:00,57.0,56.2,30.10,ESE,108,2.3,2.3,97,0.00,CLR,SKC,0.02,0.0,WeatherDisplay:10.37,2014-08-22 08:12:00,
2014-08-22 04:17:00,57.0,56.2,30.10,ENE,78,0.0,0.0,97,0.00,CLR,SKC,0.02,0.0,WeatherDisplay:10.37,2014-08-22 08:17:00,
2014-08-22 04:22:00,56.9,56.1,30.10,East,90,3.5,3.5,97,0.00,CLR,SKC,0.02,0.0,WeatherDisplay:10.37,2014-08-22 08:22:00,
2014-08-22 04:27:00,56.9,56.1,30.10,SE,145,0.0,0.0,97,0.00,CLR,SKC,0.02,0.0,WeatherDisplay:10.37,2014-08-22 08:27:00,
2014-08-22 04:32:00,57.0,56.2,30.10,ESE,107,0.0,0.0,97,0.00,CLR,SKC,0.02,0.0,WeatherDisplay:10.37,2014-08-22 08:32:00,
2014-08-22 04:37:00,57.0,56.2,30.10,ESE,109,1.2,0.0,97,0.00,CLR,SKC,0.02,0.0,WeatherDisplay:10.37,2014-08-22 08:37:00,
2014-08-22 04:42:00,57.0,56.2,30.10,East,101,1.2,0.0,97,0.00,CLR,SKC,0.02,0.0,WeatherDisplay:10.37,2014-08-22 08:42:00,
2014-08-22 04:47:00,57.0,56.2,30.10,South,176,0.0,0.0,97,0.00,CLR,SKC,0.02,0.0,WeatherDisplay:10.37,2014-08-22 08:47:00,
2014-08-22 04:52:00,57.0,56.2,30.10,South,174,0.0,0.0,97,0.00,CLR,SKC,0.02,0.0,WeatherDisplay:10.37,2014-08-22 08:52:00,
2014-08-22 04:57:00,57.0,56.4,30.10,East,87,3.5,3.5,98,0.00,CLR,SKC,0.02,0.0,WeatherDisplay:10.37,2014-08-22 08:57:00,
2014-08-22 05:02:00,56.9,56.3,30.11,East,80,1.2,1.2,98,0.00,CLR,SKC,0.02,0.0,WeatherDisplay:10.37,2014-08-22 09:02:00,
2014-08-22 05:07:00,57.0,56.4,30.11,East,85,3.5,3.5,98,0.00,CLR,SKC,0.02,0.0,WeatherDisplay:10.37,2014-08-22 09:07:00,
2014-08-22 05:12:00,57.0,56.4,30.11,NE,47,0.0,0.0,98,0.00,CLR,SKC,0.02,0.0,WeatherDisplay:10.37,2014-08-22 09:12:00,
2014-08-22 05:17:00,57.0,56.4,30.11,ENE,63,0.0,0.0,98,0.01,RA,SKC,0.03,0.0,WeatherDisplay:10.37,2014-08-22 09:17:00,
2014-08-22 05:22:00,57.0,56.4,30.11,ENE,77,3.0,3.0,98,0.01,RA,SKC,0.03,0.0,WeatherDisplay:10.37,2014-08-22 09:22:00,
2014-08-22 05:27:00,57.0,56.4,30.11,East,82,1.2,1.2,98,0.01,CLR,SKC,0.03,0.0,WeatherDisplay:10.37,2014-08-22 09:27:00,
2014-08-22 05:32:00,57.1,56.5,30.11,ENE,78,1.2,1.2,98,0.01,CLR,SKC,0.03,0.0,WeatherDisplay:10.37,2014-08-22 09:32:00,
2014-08-22 05:37:00,57.1,56.5,30.11,ENE,78,4.6,4.6,98,0.02,RA,SKC,0.04,0.0,WeatherDisplay:10.37,2014-08-22 09:37:00,
2014-08-22 05:42:00,57.0,56.4,30.11,NE,49,4.6,4.6,98,0.02,RA,SKC,0.04,0.0,WeatherDisplay:10.37,2014-08-22 09:42:00,
2014-08-22 05:47:00,57.0,56.4,30.11,ENE,73,3.5,3.5,98,0.02,,SKC,0.04,0.0,WeatherDisplay:10.37,2014-08-22 09:47:00,
2014-08-22 05:52:00,57.1,56.5,30.11,NE,53,2.3,2.3,98,0.03,RA,SKC,0.05,0.0,WeatherDisplay:10.37,2014-08-22 09:52:00,
2014-08-22 05:57:00,57.1,56.5,30.11,NNE,24,1.2,0.0,98,0.03,RA,SKC,0.05,0.0,WeatherDisplay:10.37,2014-08-22 09:57:00,
2014-08-22 06:02:00,57.1,56.5,30.11,NE,49,1.2,0.0,98,0.03,,SKC,0.05,0.0,WeatherDisplay:10.37,2014-08-22 10:02:00,
2014-08-22 06:07:00,57.1,56.5,30.12,ESE,110,0.0,0.0,98,0.03,CLR,SKC,0.05,0.0,WeatherDisplay:10.37,2014-08-22 10:07:00,
2014-08-22 06:12:00,57.1,56.5,30.12,ESE,110,0.0,0.0,98,0.03,CLR,SKC,0.05,0.0,WeatherDisplay:10.37,2014-08-22 10:12:00,
2014-08-22 06:17:00,57.2,56.6,30.12,North,5,0.0,0.0,98,0.03,RA,SKC,0.06,0.0,WeatherDisplay:10.37,2014-08-22 10:17:00,
2014-08-22 06:22:00,57.2,56.6,30.12,North,0,0.0,0.0,98,0.03,RA,SKC,0.06,0.0,WeatherDisplay:10.37,2014-08-22 10:22:00,
2014-08-22 06:27:00,57.2,56.6,30.12,North,0,0.0,0.0,98,0.04,RA,SKC,0.07,0.0,WeatherDisplay:10.37,2014-08-22 10:27:00,
2014-08-22 06:32:00,57.2,56.6,30.12,North,0,0.0,0.0,98,0.05,RA,SKC,0.08,0.0,WeatherDisplay:10.37,2014-08-22 10:32:00,
2014-08-22 06:37:00,57.2,56.6,30.12,East,95,0.0,0.0,98,0.04,RA,SKC,0.08,0.0,WeatherDisplay:10.37,2014-08-22 10:37:00,
2014-08-22 06:42:00,57.2,56.6,30.12,East,94,0.0,0.0,98,0.05,RA,SKC,0.09,0.0,WeatherDisplay:10.37,2014-08-22 10:42:00,
2014-08-22 06:47:00,57.2,56.6,30.12,East,94,0.0,0.0,98,0.05,RA,SKC,0.09,0.0,WeatherDisplay:10.37,2014-08-22 10:47:00,
2014-08-22 06:52:00,57.3,56.7,30.12,East,89,0.0,0.0,98,0.05,RA,SKC,0.10,7.0,WeatherDisplay:10.37,2014-08-22 10:52:00,
2014-08-22 06:57:00,57.4,56.8,30.12,ENE,69,3.5,3.5,98,0.05,RA,SKC,0.10,9.0,WeatherDisplay:10.37,2014-08-22 10:57:00,
2014-08-22 07:02:00,57.4,56.8,30.12,East,98,1.2,1.2,98,0.06,RA,SKC,0.11,14.0,WeatherDisplay:10.37,2014-08-22 11:02:00,
2014-08-22 07:07:00,57.5,56.9,30.12,East,96,3.5,3.5,98,0.06,RA,SKC,0.11,19.0,WeatherDisplay:10.37,2014-08-22 11:07:00,
2014-08-22 07:12:00,57.5,56.9,30.12,ENE,72,1.0,0.0,98,0.06,BKN,SKC,0.11,21.0,WeatherDisplay:10.37,2014-08-22 11:12:00,
2014-08-22 07:17:00,57.5,56.9,30.12,ENE,64,5.8,5.8,98,0.05,BKN,SKC,0.11,23.0,WeatherDisplay:10.37,2014-08-22 11:17:00,
2014-08-22 07:22:00,57.6,57.0,30.12,ESE,108,3.5,3.5,98,0.05,BKN,SKC,0.11,26.0,WeatherDisplay:10.37,2014-08-22 11:22:00,
2014-08-22 07:27:00,57.6,57.0,30.12,East,82,1.2,0.0,98,0.04,BKN,SKC,0.11,32.0,WeatherDisplay:10.37,2014-08-22 11:27:00,
2014-08-22 07:32:00,57.8,57.2,30.12,ENE,57,3.5,3.5,98,0.03,BKN,SKC,0.11,35.0,WeatherDisplay:10.37,2014-08-22 11:32:00,
2014-08-22 07:37:00,57.8,57.2,30.12,NE,56,0.0,0.0,98,0.03,BKN,SKC,0.11,40.0,WeatherDisplay:10.37,2014-08-22 11:37:00,
2014-08-22 07:42:00,57.9,57.3,30.12,NE,38,0.0,0.0,98,0.02,BKN,SKC,0.11,47.0,WeatherDisplay:10.37,2014-08-22 11:42:00,
2014-08-22 07:47:00,58.0,57.4,30.12,ENE,74,1.2,0.0,98,0.02,BKN,SKC,0.11,53.0,WeatherDisplay:10.37,2014-08-22 11:47:00,
2014-08-22 07:52:00,58.1,57.5,30.12,ENE,70,0.0,0.0,98,0.01,BKN,SKC,0.11,58.0,WeatherDisplay:10.37,2014-08-22 11:52:00,
2014-08-22 07:57:00,58.3,57.7,30.12,ENE,57,0.0,0.0,98,0.01,BKN,SKC,0.11,51.0,WeatherDisplay:10.37,2014-08-22 11:57:00,
2014-08-22 08:02:00,58.2,57.6,30.12,East,92,0.0,0.0,98,0.00,BKN,SKC,0.11,58.0,WeatherDisplay:10.37,2014-08-22 12:02:00,
2014-08-22 08:07:00,58.4,57.8,30.12,East,98,0.0,0.0,98,0.00,BKN,SKC,0.11,54.0,WeatherDisplay:10.37,2014-08-22 12:07:00,
2014-08-22 08:12:00,58.5,57.9,30.12,East,86,2.3,2.3,98,0.00,BKN,SKC,0.11,72.0,WeatherDisplay:10.37,2014-08-22 12:12:00,
2014-08-22 08:17:00,58.6,58.0,30.11,ENE,60,3.5,3.5,98,0.00,BKN,SKC,0.11,69.0,WeatherDisplay:10.37,2014-08-22 12:17:00,
2014-08-22 08:22:00,58.6,58.0,30.11,ENE,69,0.0,0.0,98,0.00,BKN,SKC,0.11,93.0,WeatherDisplay:10.37,2014-08-22 12:22:00,
2014-08-22 08:27:00,58.9,58.3,30.11,ENE,71,1.2,1.2,98,0.00,BKN,SKC,0.11,207.0,WeatherDisplay:10.37,2014-08-22 12:27:00,
2014-08-22 08:32:00,59.3,58.7,30.11,ENE,77,0.0,0.0,98,0.00,BKN,SKC,0.11,178.0,WeatherDisplay:10.37,2014-08-22 12:32:00,
2014-08-22 08:37:00,59.4,58.8,30.11,ESE,107,6.9,6.9,98,0.00,BKN,SKC,0.11,144.0,WeatherDisplay:10.37,2014-08-22 12:37:00,
2014-08-22 08:42:00,59.5,58.6,30.11,NE,36,4.0,4.0,97,0.00,BKN,SKC,0.11,156.0,WeatherDisplay:10.37,2014-08-22 12:42:00,
2014-08-22 08:47:00,59.4,58.5,30.11,East,98,1.2,0.0,97,0.00,BKN,SKC,0.11,107.0,WeatherDisplay:10.37,2014-08-22 12:47:00,
2014-08-22 08:52:00,59.7,58.8,30.12,East,98,3.5,3.5,97,0.00,BKN,SKC,0.11,102.0,WeatherDisplay:10.37,2014-08-22 12:52:00,
2014-08-22 08:57:00,59.4,58.3,30.12,SSE,161,1.2,1.2,96,0.00,BKN,SKC,0.11,97.0,WeatherDisplay:10.37,2014-08-22 12:57:00,
2014-08-22 09:02:00,59.6,58.5,30.12,ENE,69,1.2,0.0,96,0.00,BKN,SKC,0.11,98.0,WeatherDisplay:10.37,2014-08-22 13:02:00,
2014-08-22 09:07:00,59.6,58.5,30.12,ESE,106,1.2,1.2,96,0.00,BKN,SKC,0.11,127.0,WeatherDisplay:10.37,2014-08-22 13:07:00,
2014-08-22 09:12:00,59.6,58.7,30.12,East,83,1.2,0.0,97,0.00,BKN,SKC,0.11,114.0,WeatherDisplay:10.37,2014-08-22 13:12:00,
2014-08-22 09:17:00,59.7,58.8,30.12,NE,51,0.0,0.0,97,0.00,BKN,SKC,0.11,88.0,WeatherDisplay:10.37,2014-08-22 13:17:00,
2014-08-22 09:22:00,59.6,58.5,30.12,ESE,121,0.0,0.0,96,0.00,BKN,SKC,0.11,84.0,WeatherDisplay:10.37,2014-08-22 13:22:00,
2014-08-22 09:27:00,59.5,58.4,30.12,ENE,65,0.0,0.0,96,0.00,BKN,SKC,0.11,91.0,WeatherDisplay:10.37,2014-08-22 13:27:00,
2014-08-22 09:32:00,59.6,58.5,30.12,ENE,78,0.0,0.0,96,0.00,BKN,SKC,0.11,79.0,WeatherDisplay:10.37,2014-08-22 13:32:00,
2014-08-22 09:37:00,59.6,58.5,30.12,NE,53,3.5,3.5,96,0.00,BKN,SKC,0.11,81.0,WeatherDisplay:10.37,2014-08-22 13:37:00,
2014-08-22 09:42:00,59.6,58.5,30.12,East,98,3.5,3.5,96,0.00,BKN,SKC,0.11,81.0,WeatherDisplay:10.37,2014-08-22 13:42:00,
2014-08-22 09:47:00,59.5,58.6,30.12,East,94,0.0,0.0,97,0.00,BKN,SKC,0.11,83.0,WeatherDisplay:10.37,2014-08-22 13:47:00,
2014-08-22 09:52:00,59.4,58.5,30.12,NNE,26,3.5,3.5,97,0.00,BKN,SKC,0.11,77.0,WeatherDisplay:10.37,2014-08-22 13:52:00,
2014-08-22 09:57:00,59.4,58.5,30.12,ENE,57,0.0,0.0,97,0.00,BKN,SKC,0.11,77.0,WeatherDisplay:10.37,2014-08-22 13:57:00,
2014-08-22 10:02:00,59.4,58.5,30.12,ESE,104,1.2,1.2,97,0.00,BKN,SKC,0.11,76.0,WeatherDisplay:10.37,2014-08-22 14:02:00,
2014-08-22 10:07:00,59.5,58.6,30.12,NE,53,0.0,0.0,97,0.00,BKN,SKC,0.11,65.0,WeatherDisplay:10.37,2014-08-22 14:07:00,
2014-08-22 10:12:00,59.5,58.6,30.12,ENE,57,0.0,0.0,97,0.00,BKN,SKC,0.11,60.0,WeatherDisplay:10.37,2014-08-22 14:12:00,
2014-08-22 10:17:00,59.4,58.5,30.12,East,85,3.5,3.5,97,0.00,BKN,SKC,0.11,65.0,WeatherDisplay:10.37,2014-08-22 14:17:00,
2014-08-22 10:22:00,59.4,58.5,30.12,East,99,0.0,0.0,97,0.00,BKN,SKC,0.11,74.0,WeatherDisplay:10.37,2014-08-22 14:22:00,
2014-08-22 10:27:00,59.3,58.4,30.12,ESE,113,3.5,3.5,97,0.00,BKN,SKC,0.11,79.0,WeatherDisplay:10.37,2014-08-22 14:27:00,
2014-08-22 10:32:00,59.3,58.4,30.13,ENE,73,0.0,0.0,97,0.00,BKN,SKC,0.11,77.0,WeatherDisplay:10.37,2014-08-22 14:32:00,
2014-08-22 10:37:00,59.4,58.5,30.13,NE,54,1.2,1.2,97,0.00,BKN,SKC,0.11,72.0,WeatherDisplay:10.37,2014-08-22 14:37:00,
2014-08-22 10:42:00,59.6,58.7,30.13,ENE,57,0.0,0.0,97,0.00,BKN,SKC,0.11,74.0,WeatherDisplay:10.37,2014-08-22 14:42:00,
2014-08-22 10:47:00,59.6,58.7,30.13,NE,56,0.0,0.0,97,0.00,BKN,SKC,0.11,69.0,WeatherDisplay:10.37,2014-08-22 14:47:00,
2014-08-22 10:52:00,59.6,58.5,30.14,ENE,78,0.0,0.0,96,0.00,BKN,SKC,0.11,63.0,WeatherDisplay:10.37,2014-08-22 14:52:00,
2014-08-22 10:57:00,59.6,58.5,30.14,NE,40,0.0,0.0,96,0.00,BKN,SKC,0.11,67.0,WeatherDisplay:10.37,2014-08-22 14:57:00,
2014-08-22 11:02:00,59.6,58.7,30.14,East,80,0.0,0.0,97,0.00,BKN,SKC,0.11,62.0,WeatherDisplay:10.37,2014-08-22 15:02:00,
2014-08-22 11:07:00,59.6,58.7,30.14,ENE,58,0.0,0.0,97,0.00,BKN,SKC,0.11,63.0,WeatherDisplay:10.37,2014-08-22 15:07:00,
2014-08-22 11:12:00,59.5,58.6,30.14,NNE,13,0.0,0.0,97,0.00,BKN,SKC,0.11,62.0,WeatherDisplay:10.37,2014-08-22 15:12:00,
2014-08-22 11:17:00,59.7,58.8,30.14,NNW,344,2.3,2.3,97,0.00,BKN,SKC,0.11,60.0,WeatherDisplay:10.37,2014-08-22 15:17:00,
2014-08-22 11:22:00,59.7,58.8,30.14,NE,53,2.3,0.0,97,0.00,BKN,SKC,0.11,58.0,WeatherDisplay:10.37,2014-08-22 15:22:00,
2014-08-22 11:27:00,59.8,58.9,30.14,NE,53,0.0,0.0,97,0.00,BKN,SKC,0.11,63.0,WeatherDisplay:10.37,2014-08-22 15:27:00,
2014-08-22 11:32:00,59.9,59.0,30.14,NE,53,0.0,0.0,97,0.00,BKN,SKC,0.11,63.0,WeatherDisplay:10.37,2014-08-22 15:32:00,
2014-08-22 11:37:00,59.9,59.0,30.14,NE,53,0.0,0.0,97,0.00,BKN,SKC,0.11,67.0,WeatherDisplay:10.37,2014-08-22 15:37:00,
2014-08-22 11:42:00,60.0,59.1,30.14,NE,53,0.0,0.0,97,0.00,BKN,SKC,0.11,65.0,WeatherDisplay:10.37,2014-08-22 15:42:00,
2014-08-22 11:47:00,60.2,59.3,30.14,NE,53,0.0,0.0,97,0.00,BKN,SKC,0.11,79.0,WeatherDisplay:10.37,2014-08-22 15:47:00,
2014-08-22 11:52:00,60.3,59.7,30.14,NE,53,0.0,0.0,98,0.00,BKN,SKC,0.11,90.0,WeatherDisplay:10.37,2014-08-22 15:52:00,
2014-08-22 11:57:00,60.3,59.4,30.14,NE,50,0.0,0.0,97,0.00,BKN,SKC,0.11,88.0,WeatherDisplay:10.37,2014-08-22 15:57:00,
2014-08-22 12:02:00,60.5,59.6,30.14,NE,51,0.0,0.0,97,0.00,BKN,SKC,0.11,98.0,WeatherDisplay:10.37,2014-08-22 16:02:00,
2014-08-22 12:07:00,60.8,59.9,30.14,NE,51,0.0,0.0,97,0.00,BKN,SKC,0.11,91.0,WeatherDisplay:10.37,2014-08-22 16:07:00,
2014-08-22 12:12:00,60.7,59.8,30.14,NE,51,0.0,0.0,97,0.00,BKN,SKC,0.11,93.0,WeatherDisplay:10.37,2014-08-22 16:12:00,
2014-08-22 12:17:00,60.7,59.8,30.14,NE,51,0.0,0.0,97,0.00,BKN,SKC,0.11,77.0,WeatherDisplay:10.37,2014-08-22 16:17:00,
2014-08-22 12:22:00,60.7,59.8,30.14,NE,39,0.0,0.0,97,0.00,BKN,SKC,0.11,111.0,WeatherDisplay:10.37,2014-08-22 16:22:00,
2014-08-22 12:27:00,61.0,60.1,30.14,NE,38,1.2,0.0,97,0.00,BKN,SKC,0.11,116.0,WeatherDisplay:10.37,2014-08-22 16:27:00,
2014-08-22 12:32:00,61.0,60.1,30.14,NE,54,1.2,1.2,97,0.00,BKN,SKC,0.11,118.0,WeatherDisplay:10.37,2014-08-22 16:32:00,
2014-08-22 12:37:00,61.2,60.3,30.13,NE,45,3.5,3.5,97,0.00,BKN,SKC,0.11,128.0,WeatherDisplay:10.37,2014-08-22 16:37:00,
2014-08-22 12:42:00,61.3,60.7,30.14,NNE,30,1.2,1.2,98,0.00,BKN,SKC,0.11,120.0,WeatherDisplay:10.37,2014-08-22 16:42:00,
2014-08-22 12:47:00,61.4,60.8,30.13,ENE,67,0.0,0.0,98,0.00,BKN,SKC,0.11,148.0,WeatherDisplay:10.37,2014-08-22 16:47:00,
2014-08-22 12:52:00,61.5,60.9,30.13,NE,36,3.0,3.0,98,0.00,BKN,SKC,0.11,183.0,WeatherDisplay:10.37,2014-08-22 16:52:00,
2014-08-22 12:57:00,61.7,61.1,30.13,ENE,78,1.2,0.0,98,0.00,BKN,SKC,0.11,193.0,WeatherDisplay:10.37,2014-08-22 16:57:00,
2014-08-22 13:02:00,61.9,61.3,30.13,East,93,3.5,3.5,98,0.00,BKN,SKC,0.11,223.0,WeatherDisplay:10.37,2014-08-22 17:02:00,
2014-08-22 13:07:00,62.2,61.3,30.13,East,87,0.0,0.0,97,0.00,BKN,SKC,0.11,200.0,WeatherDisplay:10.37,2014-08-22 17:07:00,
2014-08-22 13:12:00,62.6,61.7,30.13,NE,51,4.6,4.6,97,0.00,BKN,SKC,0.11,195.0,WeatherDisplay:10.37,2014-08-22 17:12:00,
2014-08-22 13:17:00,62.5,61.6,30.13,East,86,4.0,4.0,97,0.00,BKN,SKC,0.11,179.0,WeatherDisplay:10.37,2014-08-22 17:17:00,
2014-08-22 13:22:00,62.2,61.0,30.13,ESE,118,5.8,5.8,96,0.00,BKN,SKC,0.11,162.0,WeatherDisplay:10.37,2014-08-22 17:22:00,
2014-08-22 13:27:00,62.3,61.1,30.14,NE,49,1.2,1.2,96,0.00,BKN,SKC,0.11,139.0,WeatherDisplay:10.37,2014-08-22 17:27:00,
2014-08-22 13:32:00,62.3,61.1,30.13,NNE,32,0.0,0.0,96,0.00,BKN,SKC,0.11,141.0,WeatherDisplay:10.37,2014-08-22 17:32:00,
2014-08-22 13:37:00,62.3,61.1,30.13,ESE,119,1.2,0.0,96,0.00,BKN,SKC,0.11,144.0,WeatherDisplay:10.37,2014-08-22 17:37:00,
2014-08-22 13:42:00,62.2,60.8,30.13,NNE,32,3.5,3.5,95,0.00,BKN,SKC,0.11,171.0,WeatherDisplay:10.37,2014-08-22 17:42:00,
2014-08-22 13:47:00,62.4,61.2,30.13,East,100,0.0,0.0,96,0.00,BKN,SKC,0.11,193.0,WeatherDisplay:10.37,2014-08-22 17:47:00,
2014-08-22 13:52:00,62.5,60.7,30.13,East,92,1.2,1.2,94,0.00,BKN,SKC,0.11,174.0,WeatherDisplay:10.37,2014-08-22 17:52:00,
2014-08-22 13:57:00,62.7,61.2,30.13,NE,51,0.0,0.0,95,0.00,BKN,SKC,0.11,190.0,WeatherDisplay:10.37,2014-08-22 17:57:00,
2014-08-22 14:02:00,62.7,61.2,30.13,ENE,67,1.2,0.0,95,0.00,BKN,SKC,0.11,185.0,WeatherDisplay:10.37,2014-08-22 18:02:00,
2014-08-22 14:07:00,63.0,61.5,30.13,NE,43,1.0,0.0,95,0.00,BKN,SKC,0.11,176.0,WeatherDisplay:10.37,2014-08-22 18:07:00,
2014-08-22 14:12:00,62.8,61.0,30.13,East,82,0.0,0.0,94,0.00,BKN,SKC,0.11,193.0,WeatherDisplay:10.37,2014-08-22 18:12:00,
2014-08-22 14:17:00,63.0,60.9,30.13,East,86,0.0,0.0,93,0.00,BKN,SKC,0.11,188.0,WeatherDisplay:10.37,2014-08-22 18:17:00,
2014-08-22 14:22:00,63.0,61.5,30.13,East,85,0.0,0.0,95,0.00,BKN,SKC,0.11,162.0,WeatherDisplay:10.37,2014-08-22 18:22:00,
2014-08-22 14:27:00,62.9,61.1,30.13,ESE,109,0.0,0.0,94,0.00,BKN,SKC,0.11,146.0,WeatherDisplay:10.37,2014-08-22 18:27:00,
2014-08-22 14:32:00,62.9,61.4,30.12,ENE,59,2.3,2.3,95,0.00,BKN,SKC,0.11,144.0,WeatherDisplay:10.37,2014-08-22 18:32:00,
2014-08-22 14:37:00,62.9,61.4,30.12,East,82,1.2,1.2,95,0.00,BKN,SKC,0.11,146.0,WeatherDisplay:10.37,2014-08-22 18:37:00,
2014-08-22 14:42:00,63.0,61.2,30.12,NE,38,0.0,0.0,94,0.00,BKN,SKC,0.11,137.0,WeatherDisplay:10.37,2014-08-22 18:42:00,
2014-08-22 14:47:00,63.0,61.5,30.12,East,92,0.0,0.0,95,0.00,BKN,SKC,0.11,142.0,WeatherDisplay:10.37,2014-08-22 18:47:00,
2014-08-22 14:52:00,62.9,61.7,30.12,NE,49,5.0,5.0,96,0.00,BKN,SKC,0.11,142.0,WeatherDisplay:10.37,2014-08-22 18:52:00,
2014-08-22 14:57:00,63.1,61.3,30.12,NE,42,1.2,0.0,94,0.00,BKN,SKC,0.11,142.0,WeatherDisplay:10.37,2014-08-22 18:57:00,
2014-08-22 15:02:00,63.3,61.8,30.12,ENE,61,1.2,1.2,95,0.00,BKN,SKC,0.11,132.0,WeatherDisplay:10.37,2014-08-22 19:02:00,
2014-08-22 15:07:00,63.4,61.6,30.12,NNE,28,0.0,0.0,94,0.00,BKN,SKC,0.11,109.0,WeatherDisplay:10.37,2014-08-22 19:07:00,
2014-08-22 15:12:00,63.2,61.1,30.12,ENE,65,0.0,0.0,93,0.00,BKN,SKC,0.11,72.0,WeatherDisplay:10.37,2014-08-22 19:12:00,
2014-08-22 15:17:00,63.0,61.5,30.12,ESE,106,0.0,0.0,95,0.00,BKN,SKC,0.11,46.0,WeatherDisplay:10.37,2014-08-22 19:17:00,
2014-08-22 15:22:00,62.8,61.6,30.12,East,89,0.0,0.0,96,0.00,BKN,SKC,0.11,60.0,WeatherDisplay:10.37,2014-08-22 19:22:00,
2014-08-22 15:27:00,62.6,61.4,30.12,East,89,0.0,0.0,96,0.00,OVC,SKC,0.11,40.0,WeatherDisplay:10.37,2014-08-22 19:27:00,
2014-08-22 15:32:00,62.5,61.3,30.12,ENE,71,0.0,0.0,96,0.00,BKN,SKC,0.11,63.0,WeatherDisplay:10.37,2014-08-22 19:32:00,
2014-08-22 15:37:00,62.4,61.5,30.12,ENE,62,1.2,0.0,97,0.00,BKN,SKC,0.11,51.0,WeatherDisplay:10.37,2014-08-22 19:37:00,
2014-08-22 15:42:00,62.4,61.5,30.12,ENE,61,0.0,0.0,97,0.00,OVC,SKC,0.11,37.0,WeatherDisplay:10.37,2014-08-22 19:42:00,
2014-08-22 15:47:00,62.3,61.4,30.12,ENE,57,0.0,0.0,97,0.00,BKN,SKC,0.11,63.0,WeatherDisplay:10.37,2014-08-22 19:47:00,
2014-08-22 15:52:00,62.4,61.5,30.12,East,91,0.0,0.0,97,0.00,BKN,SKC,0.11,79.0,WeatherDisplay:10.37,2014-08-22 19:52:00,
2014-08-22 15:57:00,62.6,61.7,30.12,East,90,0.0,0.0,97,0.00,BKN,SKC,0.11,111.0,WeatherDisplay:10.37,2014-08-22 19:57:00,
2014-08-22 16:02:00,62.7,61.8,30.11,NE,56,1.2,0.0,97,0.00,BKN,SKC,0.11,97.0,WeatherDisplay:10.37,2014-08-22 20:02:00,
2014-08-22 16:07:00,62.7,61.8,30.11,ENE,76,1.2,1.2,97,0.00,BKN,SKC,0.11,74.0,WeatherDisplay:10.37,2014-08-22 20:07:00,
2014-08-22 16:12:00,62.7,61.8,30.11,NE,53,1.2,0.0,97,0.00,BKN,SKC,0.11,65.0,WeatherDisplay:10.37,2014-08-22 20:12:00,
2014-08-22 16:17:00,62.8,61.9,30.11,NNE,31,1.2,1.2,97,0.00,BKN,SKC,0.11,54.0,WeatherDisplay:10.37,2014-08-22 20:17:00,
2014-08-22 16:22:00,62.7,61.8,30.11,NNE,21,0.0,0.0,97,0.00,BKN,SKC,0.11,47.0,WeatherDisplay:10.37,2014-08-22 20:22:00,
2014-08-22 16:27:00,62.5,61.6,30.11,ENE,59,1.2,0.0,97,0.00,BKN,SKC,0.11,39.0,WeatherDisplay:10.37,2014-08-22 20:27:00,
2014-08-22 16:32:00,62.4,61.5,30.11,NE,45,0.0,0.0,97,0.00,BKN,SKC,0.11,37.0,WeatherDisplay:10.37,2014-08-22 20:32:00,
2014-08-22 16:37:00,62.4,61.8,30.11,ENE,76,2.3,2.3,98,0.00,BKN,SKC,0.11,65.0,WeatherDisplay:10.37,2014-08-22 20:37:00,
2014-08-22 16:42:00,62.4,61.8,30.11,NNE,14,2.3,0.0,98,0.00,BKN,SKC,0.11,63.0,WeatherDisplay:10.37,2014-08-22 20:42:00,
2014-08-22 16:47:00,62.4,61.8,30.11,ENE,58,3.5,3.5,98,0.00,BKN,SKC,0.11,67.0,WeatherDisplay:10.37,2014-08-22 20:47:00,
2014-08-22 16:52:00,62.4,61.8,30.11,NE,53,0.0,0.0,98,0.01,RA,SKC,0.12,42.0,WeatherDisplay:10.37,2014-08-22 20:52:00,
2014-08-22 16:57:00,62.3,61.4,30.11,East,92,1.2,0.0,97,0.01,RA,SKC,0.12,54.0,WeatherDisplay:10.37,2014-08-22 20:57:00,
2014-08-22 17:02:00,62.3,61.7,30.11,East,101,5.0,5.0,98,0.01,BKN,SKC,0.12,60.0,WeatherDisplay:10.37,2014-08-22 21:02:00,
2014-08-22 17:07:00,62.3,61.7,30.11,ENE,73,0.0,0.0,98,0.01,BKN,SKC,0.12,65.0,WeatherDisplay:10.37,2014-08-22 21:07:00,
2014-08-22 17:12:00,62.4,61.8,30.11,ENE,65,0.0,0.0,98,0.01,BKN,SKC,0.12,70.0,WeatherDisplay:10.37,2014-08-22 21:12:00,
2014-08-22 17:17:00,62.4,61.8,30.11,ENE,58,1.0,1.0,98,0.01,BKN,SKC,0.12,72.0,WeatherDisplay:10.37,2014-08-22 21:17:00,
2014-08-22 17:22:00,62.4,61.8,30.11,ENE,68,2.3,2.3,98,0.01,BKN,SKC,0.12,58.0,WeatherDisplay:10.37,2014-08-22 21:22:00,
2014-08-22 17:27:00,62.5,61.9,30.11,NE,44,1.2,0.0,98,0.01,BKN,SKC,0.12,53.0,WeatherDisplay:10.37,2014-08-22 21:27:00,
2014-08-22 17:32:00,62.4,61.8,30.11,East,80,0.0,0.1,98,0.01,BKN,SKC,0.12,44.0,WeatherDisplay:10.37,2014-08-22 21:32:00,
2014-08-22 17:37:00,62.5,61.9,30.11,East,88,3.5,3.5,98,0.01,BKN,SKC,0.12,47.0,WeatherDisplay:10.37,2014-08-22 21:37:00,
2014-08-22 17:42:00,62.5,61.9,30.11,ENE,61,2.3,2.3,98,0.01,BKN,SKC,0.12,49.0,WeatherDisplay:10.37,2014-08-22 21:42:00,
2014-08-22 17:47:00,62.4,61.8,30.12,NNE,32,3.5,3.5,98,0.01,BKN,SKC,0.12,51.0,WeatherDisplay:10.37,2014-08-22 21:47:00,
2014-08-22 17:52:00,62.4,61.8,30.12,East,79,0.0,0.0,98,0.00,BKN,SKC,0.12,56.0,WeatherDisplay:10.37,2014-08-22 21:52:00,
2014-08-22 17:57:00,62.4,61.8,30.12,NE,55,0.0,0.0,98,0.00,BKN,SKC,0.12,62.0,WeatherDisplay:10.37,2014-08-22 21:57:00,
2014-08-22 18:02:00,62.4,61.8,30.12,ENE,76,3.5,3.5,98,0.00,BKN,SKC,0.12,39.0,WeatherDisplay:10.37,2014-08-22 22:02:00,
2014-08-22 18:07:00,62.4,61.8,30.12,NE,42,0.0,0.0,98,0.00,BKN,SKC,0.12,47.0,WeatherDisplay:10.37,2014-08-22 22:07:00,
2014-08-22 18:12:00,62.3,61.7,30.12,East,80,0.0,0.0,98,0.00,BKN,SKC,0.12,40.0,WeatherDisplay:10.37,2014-08-22 22:12:00,
2014-08-22 18:17:00,62.4,61.8,30.12,NE,34,1.2,1.2,98,0.00,BKN,SKC,0.12,37.0,WeatherDisplay:10.37,2014-08-22 22:17:00,
2014-08-22 18:22:00,62.2,61.6,30.13,NNE,30,9.2,9.2,98,0.00,BKN,SKC,0.12,35.0,WeatherDisplay:10.37,2014-08-22 22:22:00,
2014-08-22 18:27:00,62.1,61.2,30.13,ENE,78,3.5,3.5,97,0.00,BKN,SKC,0.12,28.0,WeatherDisplay:10.37,2014-08-22 22:27:00,
2014-08-22 18:32:00,62.0,61.1,30.12,NE,48,4.6,4.6,97,0.00,BKN,SKC,0.12,26.0,WeatherDisplay:10.37,2014-08-22 22:32:00,
2014-08-22 18:37:00,61.9,61.0,30.12,NE,49,1.2,1.2,97,0.00,BKN,SKC,0.12,26.0,WeatherDisplay:10.37,2014-08-22 22:37:00,
2014-08-22 18:42:00,61.9,61.0,30.12,ENE,68,3.0,3.0,97,0.00,BKN,SKC,0.12,23.0,WeatherDisplay:10.37,2014-08-22 22:42:00,
2014-08-22 18:47:00,61.7,60.8,30.13,ENE,61,1.2,0.0,97,0.00,BKN,SKC,0.12,18.0,WeatherDisplay:10.37,2014-08-22 22:47:00,
2014-08-22 18:52:00,61.7,60.8,30.13,NE,55,1.0,1.0,97,0.00,BKN,SKC,0.12,16.0,WeatherDisplay:10.37,2014-08-22 22:52:00,
2014-08-22 18:57:00,61.6,60.7,30.13,East,85,0.0,0.1,97,0.00,BKN,SKC,0.12,12.0,WeatherDisplay:10.37,2014-08-22 22:57:00,
2014-08-22 19:02:00,61.5,60.6,30.13,ESE,119,0.0,0.0,97,0.00,BKN,SKC,0.12,11.0,WeatherDisplay:10.37,2014-08-22 23:02:00,
2014-08-22 19:07:00,61.4,60.5,30.13,East,98,1.2,1.2,97,0.00,BKN,SKC,0.12,7.0,WeatherDisplay:10.37,2014-08-22 23:07:00,
2014-08-22 19:12:00,61.4,60.5,30.13,ESE,121,1.0,1.0,97,0.00,BKN,SKC,0.12,5.0,WeatherDisplay:10.37,2014-08-22 23:12:00,
2014-08-22 19:17:00,61.3,60.4,30.13,ENE,74,0.0,0.0,97,0.00,BKN,SKC,0.12,0.0,WeatherDisplay:10.37,2014-08-22 23:17:00,
2014-08-22 19:22:00,61.3,60.4,30.13,ENE,67,0.0,0.0,97,0.00,CLR,SKC,0.12,0.0,WeatherDisplay:10.37,2014-08-22 23:22:00,
2014-08-22 19:27:00,61.2,60.3,30.13,NE,46,0.0,0.0,97,0.00,CLR,SKC,0.12,0.0,WeatherDisplay:10.37,2014-08-22 23:27:00,
2014-08-22 19:32:00,61.2,60.3,30.13,NE,49,1.2,1.2,97,0.00,CLR,SKC,0.12,0.0,WeatherDisplay:10.37,2014-08-22 23:32:00,
2014-08-22 19:37:00,61.1,60.2,30.13,East,86,1.2,0.0,97,0.00,CLR,SKC,0.12,0.0,WeatherDisplay:10.37,2014-08-22 23:37:00,
2014-08-22 19:42:00,61.0,60.1,30.13,NE,49,0.0,0.0,97,0.00,CLR,SKC,0.12,0.0,WeatherDisplay:10.37,2014-08-22 23:42:00,
2014-08-22 19:47:00,61.0,60.4,30.13,NE,34,0.0,0.0,98,0.00,CLR,SKC,0.12,0.0,WeatherDisplay:10.37,2014-08-22 23:47:00,
2014-08-22 19:52:00,61.0,60.4,30.13,NE,36,3.5,3.5,98,0.00,CLR,SKC,0.12,0.0,WeatherDisplay:10.37,2014-08-22 23:52:00,
2014-08-22 19:57:00,61.0,60.4,30.13,ESE,109,2.3,2.3,98,0.00,CLR,SKC,0.12,0.0,WeatherDisplay:10.37,2014-08-22 23:57:00,
2014-08-22 20:02:00,60.9,60.3,30.13,East,94,3.5,3.5,98,0.00,CLR,SKC,0.12,0.0,WeatherDisplay:10.37,2014-08-23 00:02:00,
2014-08-22 20:07:00,60.8,60.2,30.13,East,85,0.0,0.0,98,0.00,CLR,SKC,0.12,0.0,WeatherDisplay:10.37,2014-08-23 00:07:00,
2014-08-22 20:12:00,60.8,60.2,30.13,East,79,3.5,3.5,98,0.00,CLR,SKC,0.12,0.0,WeatherDisplay:10.37,2014-08-23 00:12:00,
2014-08-22 20:17:00,60.7,60.1,30.13,NE,51,0.0,0.0,98,0.00,CLR,SKC,0.12,0.0,WeatherDisplay:10.37,2014-08-23 00:17:00,
2014-08-22 20:22:00,60.7,60.1,30.13,East,80,2.3,2.3,98,0.00,CLR,SKC,0.12,0.0,WeatherDisplay:10.37,2014-08-23 00:22:00,
2014-08-22 20:27:00,60.7,60.1,30.13,ENE,78,2.3,2.3,98,0.00,CLR,SKC,0.12,0.0,WeatherDisplay:10.37,2014-08-23 00:27:00,
2014-08-22 20:32:00,60.7,60.1,30.13,ENE,64,0.0,0.0,98,0.00,CLR,SKC,0.12,0.0,WeatherDisplay:10.37,2014-08-23 00:32:00,
2014-08-22 20:37:00,60.6,60.0,30.13,NE,42,0.0,0.0,98,0.00,CLR,SKC,0.12,0.0,WeatherDisplay:10.37,2014-08-23 00:37:00,
2014-08-22 20:42:00,60.6,60.0,30.14,NE,43,0.0,0.0,98,0.00,CLR,SKC,0.12,0.0,WeatherDisplay:10.37,2014-08-23 00:42:00,
2014-08-22 20:47:00,60.7,60.1,30.14,NE,41,0.0,0.0,98,0.00,CLR,SKC,0.12,0.0,WeatherDisplay:10.37,2014-08-23 00:47:00,
2014-08-22 20:52:00,60.7,60.1,30.14,NE,41,0.0,0.0,98,0.00,CLR,SKC,0.12,0.0,WeatherDisplay:10.37,2014-08-23 00:52:00,
2014-08-22 20:57:00,60.7,60.1,30.13,NE,46,3.5,3.5,98,0.00,CLR,SKC,0.12,0.0,WeatherDisplay:10.37,2014-08-23 00:57:00,
2014-08-22 21:02:00,60.7,60.1,30.14,NE,40,0.0,0.0,98,0.00,CLR,SKC,0.12,0.0,WeatherDisplay:10.37,2014-08-23 01:02:00,
2014-08-22 21:07:00,60.7,60.1,30.14,NE,40,0.0,0.0,98,0.00,CLR,SKC,0.12,0.0,WeatherDisplay:10.37,2014-08-23 01:07:00,
2014-08-22 21:12:00,60.6,60.0,30.14,NE,42,0.0,0.0,98,0.00,CLR,SKC,0.12,0.0,WeatherDisplay:10.37,2014-08-23 01:12:00,
2014-08-22 21:17:00,60.6,60.0,30.14,NE,42,0.0,0.0,98,0.00,CLR,SKC,0.12,0.0,WeatherDisplay:10.37,2014-08-23 01:17:00,
2014-08-22 21:22:00,60.5,59.9,30.14,NNE,26,0.0,0.0,98,0.00,CLR,SKC,0.12,0.0,WeatherDisplay:10.37,2014-08-23 01:22:00,
2014-08-22 21:27:00,60.4,59.8,30.14,NNE,28,0.0,0.0,98,0.00,CLR,SKC,0.12,0.0,WeatherDisplay:10.37,2014-08-23 01:27:00,
2014-08-22 21:32:00,60.3,59.7,30.14,ESE,107,1.2,0.0,98,0.00,CLR,SKC,0.12,0.0,WeatherDisplay:10.37,2014-08-23 01:32:00,
2014-08-22 21:37:00,60.3,59.7,30.13,ESE,113,3.5,3.5,98,0.00,CLR,SKC,0.12,0.0,WeatherDisplay:10.37,2014-08-23 01:37:00,
2014-08-22 21:42:00,60.3,59.7,30.14,East,84,0.0,0.0,98,0.00,CLR,SKC,0.12,0.0,WeatherDisplay:10.37,2014-08-23 01:42:00,
2014-08-22 21:47:00,60.3,59.7,30.14,NNE,32,0.0,0.0,98,0.00,CLR,SKC,0.12,0.0,WeatherDisplay:10.37,2014-08-23 01:47:00,
2014-08-22 21:52:00,60.3,59.7,30.14,NNE,32,0.0,0.0,98,0.00,CLR,SKC,0.12,0.0,WeatherDisplay:10.37,2014-08-23 01:52:00,
2014-08-22 21:57:00,60.2,59.6,30.14,NNE,32,0.0,0.0,98,0.00,CLR,SKC,0.12,0.0,WeatherDisplay:10.37,2014-08-23 01:57:00,
2014-08-22 22:02:00,60.1,59.5,30.14,ESE,102,1.2,1.2,98,0.00,CLR,SKC,0.12,0.0,WeatherDisplay:10.37,2014-08-23 02:02:00,
2014-08-22 22:07:00,60.1,59.5,30.14,ENE,58,1.2,1.2,98,0.00,CLR,SKC,0.12,0.0,WeatherDisplay:10.37,2014-08-23 02:07:00,
2014-08-22 22:12:00,60.1,59.5,30.14,ENE,58,0.0,0.0,98,0.00,CLR,SKC,0.12,0.0,WeatherDisplay:10.37,2014-08-23 02:12:00,
2014-08-22 22:17:00,60.0,59.4,30.14,North,11,0.0,0.0,98,0.00,CLR,SKC,0.12,0.0,WeatherDisplay:10.37,2014-08-23 02:17:00,
2014-08-22 22:22:00,60.0,59.4,30.14,NE,55,0.0,0.0,98,0.00,CLR,SKC,0.12,0.0,WeatherDisplay:10.37,2014-08-23 02:22:00,
2014-08-22 22:27:00,59.9,59.3,30.14,East,84,0.0,0.1,98,0.00,CLR,SKC,0.12,0.0,WeatherDisplay:10.37,2014-08-23 02:27:00,
2014-08-22 22:32:00,59.9,59.3,30.14,East,87,0.0,0.1,98,0.00,CLR,SKC,0.12,0.0,WeatherDisplay:10.37,2014-08-23 02:32:00,
2014-08-22 22:37:00,59.9,59.3,30.14,East,86,6.9,6.9,98,0.00,CLR,SKC,0.12,0.0,WeatherDisplay:10.37,2014-08-23 02:37:00,
2014-08-22 22:42:00,59.9,59.3,30.14,NE,42,0.0,0.0,98,0.00,CLR,SKC,0.12,0.0,WeatherDisplay:10.37,2014-08-23 02:42:00,